In Rescue
 
Open Full Screen Window  High Contrast Mode
Wind Gusting 00 knots
03
May 19, 2019 11:47 AM EDT
Weather Information
Wind Direction
  080 °
Wind Speed
  03 kt (3 mph)
Wind Gust
  00 kt (0 mph)
Altimeter
29.93 in
Visibility
10 SM
Temperature
13° C
55° F
Dewpoint
12° C
54° F
Humidity
94%
Sky Condition
Overcast @ 3,800 ft
VFR

METAR KFSO 191547Z AUTO 08003KT 10SM OVC038 13/12 A2993 RMK AO2 T01260118

FAA Disclaimer: The data displayed is for advisory purposes only and is not to be used for flight planning or operations.